PWSweather.com
Personal Weather Stations
Station Observations
SWHWX01
St AppolinardFR 38160

St AppolinardFR 38160

Lat: 45.191, Lon: 5.268

Elevation: 1460

Station Type: Davis Vantage Pro2 Plus

www.sweetwebhome.com/?show=wxindex

High Low Average
Temperature 44.6°F7.0°C 35.6°F2.0°C 39.5°F4.2°C
Dew Point 40.2°F4.6°C 30.6°F-0.8°C 36.2°F2.3°C
Winds 11.8 mph 19.0 kmh 0.5 mph 0.8 kmh 5.0 mph S8.0 kmh S
Wind Gusts 18.0 mph29.0 kmh 2.0 mph3.2 kmh 8.0 mph12.9 kmh
Humidity 95% 73% 88%
Pressure 29.89 in1012.2 mb 29.73 in1006.8 mb -
Precipitation 0.43 in10.9 mm - -
Hour Temp Dew Point Humidity Winds Wind Gusts Pressure Precip Precip Rate Daily Precip Total
12:00 AM 44.3°F6.8°C 39.5°F4.2°C 83% 8.0 mph SW12.9 kmh SW 12.0 mph19.3 kmh 29.91 in1012.9 mb - 0.00 in0.0 mm 0.00 in0.0 mm
12:30 AM 45.0°F7.2°C 39.2°F4.0°C 80% 8.6 mph SW13.8 kmh SW 14.0 mph22.5 kmh 29.90 in1012.5 mb - 0.00 in0.0 mm 0.00 in0.0 mm
01:00 AM 44.6°F7.0°C 39.5°F4.2°C 82% 11.8 mph WSW19.0 kmh WSW 18.0 mph29.0 kmh 29.89 in1012.2 mb - 0.00 in0.0 mm 0.00 in0.0 mm
01:30 AM 44.4°F6.9°C 39.2°F4.0°C 82% 6.9 mph SW11.1 kmh SW 9.0 mph14.5 kmh 29.87 in1011.5 mb - 0.00 in0.0 mm 0.00 in0.0 mm
02:00 AM 44.0°F6.7°C 39.5°F4.2°C 84% 6.6 mph SW10.6 kmh SW 10.0 mph16.1 kmh 29.86 in1011.2 mb - 0.00 in0.0 mm 0.00 in0.0 mm
02:30 AM 43.6°F6.4°C 39.7°F4.3°C 86% 7.3 mph WSW11.7 kmh WSW 10.0 mph16.1 kmh 29.85 in1010.8 mb - 0.00 in0.0 mm 0.00 in0.0 mm
03:00 AM 43.2°F6.2°C 39.9°F4.4°C 88% 6.5 mph WSW10.5 kmh WSW 8.0 mph12.9 kmh 29.85 in1010.8 mb - 0.01 in0.3 mm 0.01 in0.3 mm
03:30 AM 42.6°F5.9°C 40.2°F4.6°C 91% 5.4 mph WSW8.7 kmh WSW 11.0 mph17.7 kmh 29.85 in1010.8 mb - 0.04 in1.0 mm 0.05 in1.3 mm
04:00 AM 42.1°F5.6°C 40.2°F4.6°C 93% 7.4 mph SW11.9 kmh SW 9.0 mph14.5 kmh 29.84 in1010.5 mb - 0.06 in1.5 mm 0.10 in2.5 mm
04:30 AM 41.8°F5.4°C 40.2°F4.6°C 94% 5.2 mph SSW8.4 kmh SSW 5.0 mph8.0 kmh 29.82 in1009.8 mb - 0.06 in1.5 mm 0.16 in4.1 mm
05:00 AM 41.5°F5.3°C 40.2°F4.6°C 95% 6.9 mph S11.1 kmh S 11.0 mph17.7 kmh 29.80 in1009.1 mb - 0.05 in1.3 mm 0.21 in5.3 mm
05:30 AM 41.1°F5.1°C 39.8°F4.3°C 95% 4.9 mph S7.9 kmh S 9.0 mph14.5 kmh 29.80 in1009.1 mb - 0.05 in1.3 mm 0.25 in6.4 mm
06:00 AM 41.0°F5.0°C 39.6°F4.2°C 95% 5.2 mph SSW8.4 kmh SSW 9.0 mph14.5 kmh 29.79 in1008.8 mb - 0.02 in0.5 mm 0.27 in6.9 mm
06:30 AM 40.4°F4.7°C 39.1°F3.9°C 95% 6.3 mph SW10.1 kmh SW 13.0 mph20.9 kmh 29.78 in1008.5 mb - 0.02 in0.5 mm 0.28 in7.1 mm
07:00 AM 40.1°F4.5°C 38.5°F3.6°C 94% 3.8 mph SW6.1 kmh SW 6.0 mph9.7 kmh 29.78 in1008.5 mb - 0.02 in0.5 mm 0.30 in7.6 mm
07:30 AM 40.2°F4.6°C 38.9°F3.8°C 95% 4.7 mph SW7.6 kmh SW 7.0 mph11.3 kmh 29.78 in1008.5 mb - 0.02 in0.5 mm 0.32 in8.1 mm
08:00 AM 40.0°F4.4°C 38.7°F3.7°C 95% 4.4 mph SW7.1 kmh SW 9.0 mph14.5 kmh 29.78 in1008.5 mb - 0.02 in0.5 mm 0.35 in8.9 mm
08:30 AM 39.6°F4.2°C 38.3°F3.5°C 95% 9.8 mph SW15.8 kmh SW 12.0 mph19.3 kmh 29.78 in1008.5 mb - 0.03 in0.8 mm 0.37 in9.4 mm
09:00 AM 39.5°F4.2°C 38.2°F3.4°C 95% 7.7 mph SW12.4 kmh SW 8.0 mph12.9 kmh 29.78 in1008.5 mb - 0.01 in0.3 mm 0.38 in9.7 mm
09:30 AM 39.6°F4.2°C 38.3°F3.5°C 95% 7.7 mph SSW12.4 kmh SSW 14.0 mph22.5 kmh 29.78 in1008.5 mb - 0.00 in0.0 mm 0.38 in9.7 mm
10:00 AM 39.6°F4.2°C 38.3°F3.5°C 95% 3.4 mph SW5.5 kmh SW 6.0 mph9.7 kmh 29.77 in1008.1 mb - 0.00 in0.0 mm 0.38 in9.7 mm
10:30 AM 39.8°F4.3°C 38.5°F3.6°C 95% 4.3 mph SW6.9 kmh SW 6.0 mph9.7 kmh 29.78 in1008.5 mb - 0.00 in0.0 mm 0.38 in9.7 mm
11:00 AM 40.0°F4.4°C 38.7°F3.7°C 95% 0.5 mph WSW0.8 kmh WSW 5.0 mph8.0 kmh 29.77 in1008.1 mb - 0.00 in0.0 mm 0.38 in9.7 mm
11:30 AM 41.3°F5.2°C 40.0°F4.4°C 95% 5.7 mph SW9.2 kmh SW 7.0 mph11.3 kmh 29.77 in1008.1 mb - 0.00 in0.0 mm 0.38 in9.7 mm
12:00 PM 36.0°F2.2°C 34.2°F1.2°C 93% 6.5 mph NNW10.5 kmh NNW 11.0 mph17.7 kmh 29.78 in1008.5 mb - 0.02 in0.5 mm 0.39 in9.9 mm
12:30 PM 36.2°F2.3°C 34.6°F1.4°C 94% 7.9 mph NW12.7 kmh NW 11.0 mph17.7 kmh 29.76 in1007.8 mb - 0.02 in0.5 mm 0.41 in10.4 mm
01:00 PM 36.7°F2.6°C 35.1°F1.7°C 94% 2.1 mph NE3.4 kmh NE 7.0 mph11.3 kmh 29.77 in1008.1 mb - 0.02 in0.5 mm 0.43 in10.9 mm
01:30 PM 36.4°F2.4°C 34.8°F1.6°C 94% 5.4 mph E8.7 kmh E 8.0 mph12.9 kmh 29.77 in1008.1 mb - 0.00 in0.0 mm 0.43 in10.9 mm
02:00 PM 37.8°F3.2°C 36.2°F2.3°C 94% 7.6 mph ENE12.2 kmh ENE 10.0 mph16.1 kmh 29.76 in1007.8 mb - 0.00 in0.0 mm 0.43 in10.9 mm
02:30 PM 38.7°F3.7°C 36.6°F2.6°C 92% 2.6 mph ENE4.2 kmh ENE 7.0 mph11.3 kmh 29.76 in1007.8 mb - 0.00 in0.0 mm 0.43 in10.9 mm
03:00 PM 38.7°F3.7°C 35.7°F2.1°C 89% 4.5 mph E7.2 kmh E 5.0 mph8.0 kmh 29.75 in1007.5 mb - 0.00 in0.0 mm 0.43 in10.9 mm
03:30 PM 39.9°F4.4°C 36.0°F2.2°C 86% 3.1 mph ENE5.0 kmh ENE 9.0 mph14.5 kmh 29.74 in1007.1 mb - 0.00 in0.0 mm 0.43 in10.9 mm
04:00 PM 39.2°F4.0°C 35.1°F1.7°C 85% 5.0 mph NE8.0 kmh NE 9.0 mph14.5 kmh 29.74 in1007.1 mb - 0.00 in0.0 mm 0.43 in10.9 mm
04:30 PM 39.1°F3.9°C 34.4°F1.3°C 83% 3.4 mph NE5.5 kmh NE 6.0 mph9.7 kmh 29.74 in1007.1 mb - 0.00 in0.0 mm 0.43 in10.9 mm
05:00 PM 38.8°F3.8°C 34.4°F1.3°C 84% 2.2 mph NE3.5 kmh NE 5.0 mph8.0 kmh 29.74 in1007.1 mb - 0.00 in0.0 mm 0.43 in10.9 mm
05:30 PM 37.9°F3.3°C 32.9°F0.5°C 82% 3.5 mph NE5.6 kmh NE 7.0 mph11.3 kmh 29.74 in1007.1 mb - 0.00 in0.0 mm 0.43 in10.9 mm
06:00 PM 38.3°F3.5°C 32.4°F0.2°C 79% 5.6 mph N9.0 kmh N 11.0 mph17.7 kmh 29.73 in1006.8 mb - 0.00 in0.0 mm 0.43 in10.9 mm
06:30 PM 37.5°F3.1°C 32.5°F0.3°C 82% 2.8 mph NE4.5 kmh NE 4.0 mph6.4 kmh 29.74 in1007.1 mb - 0.00 in0.0 mm 0.43 in10.9 mm
07:00 PM 37.0°F2.8°C 32.3°F0.2°C 83% 2.1 mph NE3.4 kmh NE 2.0 mph3.2 kmh 29.75 in1007.5 mb - 0.00 in0.0 mm 0.43 in10.9 mm
07:30 PM 38.4°F3.6°C 30.8°F-0.7°C 74% 1.9 mph NE3.1 kmh NE 3.0 mph4.8 kmh 29.75 in1007.5 mb - 0.00 in0.0 mm 0.43 in10.9 mm
08:00 PM 38.4°F3.6°C 30.8°F-0.7°C 74% 2.6 mph NE4.2 kmh NE 3.0 mph4.8 kmh 29.75 in1007.5 mb - 0.00 in0.0 mm 0.43 in10.9 mm
08:30 PM 38.4°F3.6°C 30.8°F-0.7°C 74% 0.5 mph NE0.8 kmh NE 3.0 mph4.8 kmh 29.75 in1007.5 mb - 0.00 in0.0 mm 0.43 in10.9 mm
09:00 PM 38.5°F3.6°C 30.6°F-0.8°C 73% 1.6 mph NE2.6 kmh NE 2.0 mph3.2 kmh 29.76 in1007.8 mb - 0.00 in0.0 mm 0.43 in10.9 mm
09:30 PM 38.2°F3.4°C 30.6°F-0.8°C 74% 2.2 mph NE3.5 kmh NE 3.0 mph4.8 kmh 29.76 in1007.8 mb - 0.00 in0.0 mm 0.43 in10.9 mm
10:00 PM 37.6°F3.1°C 32.0°F0.0°C 80% 9.7 mph NNW15.6 kmh NNW 13.0 mph20.9 kmh 29.77 in1008.1 mb - 0.00 in0.0 mm 0.43 in10.9 mm
10:30 PM 36.1°F2.3°C 32.6°F0.3°C 87% 4.6 mph NNW7.4 kmh NNW 9.0 mph14.5 kmh 29.77 in1008.1 mb - 0.00 in0.0 mm 0.43 in10.9 mm
11:00 PM 35.6°F2.0°C 32.4°F0.2°C 88% 5.4 mph NNW8.7 kmh NNW 8.0 mph12.9 kmh 29.76 in1007.8 mb - 0.00 in0.0 mm 0.43 in10.9 mm
11:30 PM 35.8°F2.1°C 32.8°F0.4°C 89% 0.9 mph N1.4 kmh N 9.0 mph14.5 kmh 29.77 in1008.1 mb - 0.00 in0.0 mm 0.43 in10.9 mm